»·PEaware :: N127CB KSNA-KBLH

N127CB :: KSNA-KBLH

FLIGHT INFORMATION

Flight Status: Arrived
Operator: Privately registered:
United States
More flights under this callsign
Pilot: Chris B. (15698)
Aircraft: ECLIPSE 500
(EA50)
More flights by this aircraft type
Origin: KSNA John Wayne-Orange Co
United States
Destination: KBLH Blythe
United States
More flights between these airports :: More routes between these airports
Route: +STREL4 TRM V64 BLH
File this flight plan on PilotEdge
Remarks:
Altitude:
(Current/Filed)
21,000ft
Speed:
(Current/Filed)
340kts
Departed: 08-Sep-17 08:07 AM
Arrived: 08-Sep-17 08:53 AM
Distance/Time
Traveled:
158nm/0:46
Distance/Time
To Go:
Arrived

Flight Plot

Page will automatically refresh every two minutes.

Flight plan parsing failed; only flown route is shown


Map Options




Map Legend


Flown Route
Filed Route
Departure Airport
Arrival Airport
Navaid (VOR, NDB)
Fix

Horizontal Profiles

Position Reports

Time Latitude Longitude Heading Altitude Ground
Speed
08-Sep-17 07:52 33.676915 -117.872093 119 59ft 0kts
08-Sep-17 07:53 33.676915 -117.872093 119 59ft 0kts
08-Sep-17 07:54 33.676915 -117.872093 119 59ft 0kts
08-Sep-17 07:55 33.676915 -117.872093 119 59ft 0kts
08-Sep-17 07:56 33.676915 -117.872093 119 59ft 0kts
08-Sep-17 07:57 33.676915 -117.872093 119 59ft 0kts
08-Sep-17 07:58 33.676915 -117.872093 119 59ft 0kts
08-Sep-17 07:59 33.676915 -117.872093 119 59ft 0kts
08-Sep-17 08:00 33.676915 -117.872093 119 59ft 0kts
08-Sep-17 08:01 33.676915 -117.872093 119 59ft 0kts
08-Sep-17 08:02 33.676915 -117.872093 119 59ft 0kts
08-Sep-17 08:03 33.676915 -117.872093 119 59ft 0kts
08-Sep-17 08:04 33.676629 -117.871373 114 59ft 14kts
08-Sep-17 08:05 33.678227 -117.868660 22 59ft 31kts
08-Sep-17 08:06 33.681933 -117.866142 105 59ft 6kts
08-Sep-17 08:07 33.681924 -117.866107 105 59ft 0kts
08-Sep-17 08:08 33.681917 -117.866072 105 59ft 0kts
08-Sep-17 08:09 33.681909 -117.866039 105 59ft 0kts
08-Sep-17 08:10 33.679509 -117.866410 208 59ft 28kts
08-Sep-17 08:11 33.660955 -117.878310 206 792ft 142kts
08-Sep-17 08:12 33.632485 -117.894043 193 3001ft 159kts
08-Sep-17 08:13 33.600721 -117.898861 182 5469ft 153kts
08-Sep-17 08:14 33.566785 -117.895952 152 7911ft 152kts
08-Sep-17 08:15 33.541408 -117.879975 154 9761ft 154kts
08-Sep-17 08:16 33.509559 -117.857745 130 11931ft 165kts
08-Sep-17 08:17 33.492729 -117.816766 124 13798ft 173kts
08-Sep-17 08:18 33.477444 -117.773249 98 15529ft 191kts
08-Sep-17 08:19 33.480759 -117.715870 94 17283ft 200kts
08-Sep-17 08:20 33.499801 -117.661927 68 18820ft 220kts
08-Sep-17 08:21 33.524867 -117.607644 67 20255ft 227kts
08-Sep-17 08:22 33.545159 -117.564225 67 20986ft 248kts
08-Sep-17 08:23 33.570706 -117.509709 65 21004ft 296kts
08-Sep-17 08:24 33.584125 -117.425408 92 21000ft 319kts
08-Sep-17 08:25 33.587674 -117.355084 92 21008ft 325kts
08-Sep-17 08:26 33.590721 -117.284259 93 21007ft 325kts
08-Sep-17 08:27 33.594468 -117.188298 93 21008ft 325kts
08-Sep-17 08:28 33.597801 -117.097516 93 21006ft 325kts
08-Sep-17 08:29 33.600367 -117.022939 92 20981ft 325kts
08-Sep-17 08:30 33.603147 -116.942528 91 20954ft 325kts
08-Sep-17 08:31 33.605938 -116.861633 90 20928ft 325kts
08-Sep-17 08:32 33.609128 -116.770837 90 20927ft 325kts
08-Sep-17 08:33 33.612330 -116.675282 90 20927ft 325kts
08-Sep-17 08:34 33.615818 -116.567406 90 20918ft 325kts
08-Sep-17 08:35 33.619173 -116.460485 90 20900ft 324kts
08-Sep-17 08:36 33.622164 -116.362337 90 20889ft 329kts
08-Sep-17 08:37 33.624903 -116.270326 91 20884ft 334kts
08-Sep-17 08:38 33.627542 -116.179329 91 20882ft 337kts
08-Sep-17 08:39 33.626741 -116.088194 94 20881ft 336kts
08-Sep-17 08:40 33.625150 -115.996840 94 20881ft 336kts
08-Sep-17 08:41 33.623414 -115.904202 94 20575ft 344kts
08-Sep-17 08:42 33.621597 -115.810168 94 18874ft 318kts
08-Sep-17 08:43 33.619678 -115.717503 94 17144ft 316kts
08-Sep-17 08:44 33.617653 -115.622372 94 15312ft 307kts
08-Sep-17 08:45 33.615579 -115.528179 93 13445ft 298kts
08-Sep-17 08:46 33.613478 -115.435963 93 11562ft 289kts
08-Sep-17 08:47 33.611358 -115.347048 93 10331ft 299kts
08-Sep-17 08:48 33.609382 -115.265698 93 8992ft 243kts
08-Sep-17 08:49 33.607321 -115.184142 92 9003ft 275kts
08-Sep-17 08:50 33.605138 -115.096105 92 9000ft 275kts
08-Sep-17 08:51 33.602838 -115.011517 91 7382ft 270kts
08-Sep-17 08:52 33.611872 -114.945974 75 5604ft 218kts
08-Sep-17 08:53 33.612787 -114.882545 87 3419ft 205kts
08-Sep-17 08:54 33.614348 -114.822501 87 1994ft 159kts
08-Sep-17 08:55 33.615719 -114.782676 85 1728ft 105kts
08-Sep-17 08:56 33.616645 -114.747285 88 1050ft 117kts
08-Sep-17 08:57 33.616571 -114.715668 100 400ft 22kts
08-Sep-17 08:58 33.614252 -114.713877 1 400ft 0kts
08-Sep-17 08:59 33.614252 -114.713877 1 400ft 0kts
08-Sep-17 09:00 33.614252 -114.713877 1 400ft 0kts
08-Sep-17 09:01 33.614252 -114.713877 1 400ft 0kts
08-Sep-17 09:02 33.614252 -114.713877 1 400ft 0kts
08-Sep-17 09:03 33.614252 -114.713877 1 400ft 0kts
08-Sep-17 09:04 33.614252 -114.713877 1 400ft 0kts
08-Sep-17 09:05 33.614252 -114.713877 1 400ft 0kts
08-Sep-17 09:06 33.614252 -114.713877 1 400ft 0kts
08-Sep-17 09:07 33.614252 -114.713877 1 400ft 0kts
08-Sep-17 09:08 33.614252 -114.713877 1 400ft 0kts
08-Sep-17 09:09 33.614252 -114.713877 1 400ft 0kts
08-Sep-17 09:10 33.614252 -114.713877 1 400ft 0kts
08-Sep-17 09:11 33.614252 -114.713877 1 400ft 0kts

Navigation Log

Ident Type
Flight plan parsing failed, navigation log unavailable